Time;durP1;ratioP1;P1;durP2;ratioP2;P2;SDS_P1;SDS_P2;PMS_P1;PMS_P2;Temp;Humidity;BMP_temperature;BMP_pressure;BME280_temperature;BME280_humidity;BME280_pressure;Samples;Min_cycle;Max_cycle;Signal;HPM_P1;HPM_P2
2022/10/02 00:02:00;;;;;;;25.47;23.43;;;;;;;9.79;100.00;100708.69;5092963;28;20445;-50
2022/10/02 00:04:33;;;;;;;25.93;23.97;;;;;;;9.74;100.00;100717.22;5092742;28;20471;-47
2022/10/02 00:07:06;;;;;;;25.73;23.73;;;;;;;9.73;100.00;100726.25;5092451;28;20452;-49
2022/10/02 00:09:39;;;;;;;25.80;23.63;;;;;;;9.71;100.00;100727.44;5092908;28;20905;-50
2022/10/02 00:12:11;;;;;;;27.10;24.73;;;;;;;9.70;100.00;100733.78;5092714;28;21044;-48
2022/10/02 00:14:42;;;;;;;26.43;24.03;;;;;;;9.70;100.00;100725.81;5092328;28;20444;-48
2022/10/02 00:17:18;;;;;;;24.53;23.20;;;;;;;9.69;100.00;100721.47;5093037;28;20555;-49
2022/10/02 00:19:46;;;;;;;25.80;23.90;;;;;;;9.69;100.00;100727.63;5092565;28;20433;-48
2022/10/02 00:22:26;;;;;;;26.53;23.90;;;;;;;9.68;100.00;100733.97;5092614;28;20449;-51
2022/10/02 00:25:03;;;;;;;24.50;22.80;;;;;;;9.68;100.00;100727.81;5092324;28;20518;-50
2022/10/02 00:27:43;;;;;;;26.03;23.90;;;;;;;9.69;100.00;100740.94;5092765;28;20857;-48
2022/10/02 00:30:15;;;;;;;25.40;23.77;;;;;;;9.71;100.00;100746.91;5092465;28;20432;-49
2022/10/02 00:32:52;;;;;;;24.87;23.40;;;;;;;9.75;100.00;100744.69;5092144;28;20481;-50
2022/10/02 00:35:43;;;;;;;25.13;23.53;;;;;;;9.81;100.00;100746.59;5092092;28;20989;-46
2022/10/02 00:38:24;;;;;;;25.40;22.90;;;;;;;9.86;100.00;100746.81;5092489;28;20441;-48
2022/10/02 00:41:19;;;;;;;24.53;23.03;;;;;;;9.92;100.00;100765.53;5092133;28;20987;-47
2022/10/02 00:44:01;;;;;;;24.33;22.67;;;;;;;9.98;100.00;100758.59;5092516;28;20479;-46
2022/10/02 00:46:38;;;;;;;24.00;21.90;;;;;;;10.02;100.00;100743.91;5091865;28;21026;-51
2022/10/02 00:49:27;;;;;;;24.47;22.63;;;;;;;10.10;100.00;100748.25;5092365;28;20482;-49
2022/10/02 00:52:13;;;;;;;26.03;24.10;;;;;;;10.10;100.00;100746.41;5091877;28;20522;-47
2022/10/02 00:55:01;;;;;;;24.93;23.13;;;;;;;10.10;100.00;100740.25;5091761;28;20453;-51
2022/10/02 00:57:42;;;;;;;25.23;23.40;;;;;;;10.07;100.00;100740.63;5092113;28;21335;-48
2022/10/02 01:00:13;;;;;;;25.77;24.07;;;;;;;10.03;100.00;100733.03;5092129;28;20467;-48
2022/10/02 01:03:03;;;;;;;25.63;23.73;;;;;;;9.99;100.00;100728.31;5091913;28;20850;-50
2022/10/02 01:05:33;;;;;;;25.93;24.13;;;;;;;9.95;100.00;100730.53;5082234;28;20465;-51
2022/10/02 01:08:01;;;;;;;26.70;24.80;;;;;;;9.91;100.00;100729.28;5092159;28;20503;-48
2022/10/02 01:10:30;;;;;;;26.27;24.50;;;;;;;9.88;100.00;100748.31;5092137;28;20437;-48
2022/10/02 01:12:58;;;;;;;29.37;24.63;;;;;;;9.85;100.00;100746.03;5091717;28;20477;-49
2022/10/02 01:15:31;;;;;;;26.50;24.53;;;;;;;9.87;100.00;100744.00;5091584;28;20458;-50
2022/10/02 01:18:01;;;;;;;25.77;24.00;;;;;;;9.86;100.00;100747.66;5091867;28;20425;-48
2022/10/02 01:20:34;;;;;;;26.10;23.90;;;;;;;9.85;100.00;100738.03;5091570;28;21012;-51
2022/10/02 01:23:09;;;;;;;26.60;24.50;;;;;;;9.85;100.00;100739.88;5091717;28;20495;-50
2022/10/02 01:25:37;;;;;;;24.97;23.50;;;;;;;9.83;100.00;100744.53;5091616;28;20861;-47
2022/10/02 01:28:05;;;;;;;27.50;24.83;;;;;;;9.80;100.00;100748.41;5091701;28;20463;-47
2022/10/02 01:30:36;;;;;;;26.23;24.00;;;;;;;9.79;100.00;100754.78;5091886;28;20433;-51
2022/10/02 01:33:05;;;;;;;25.90;24.10;;;;;;;9.78;100.00;100763.78;5091535;28;20472;-49
2022/10/02 01:35:36;;;;;;;27.37;25.47;;;;;;;9.79;100.00;100767.28;5091343;28;20796;-51
2022/10/02 01:38:07;;;;;;;27.03;24.90;;;;;;;9.78;100.00;100770.94;5091640;28;20483;-48
2022/10/02 01:40:38;;;;;;;27.00;25.00;;;;;;;9.77;100.00;100764.78;5091768;28;20429;-47
2022/10/02 01:43:10;;;;;;;26.47;24.07;;;;;;;9.76;100.00;100760.50;5091368;28;21004;-46
2022/10/02 01:45:51;;;;;;;26.37;24.50;;;;;;;9.76;100.00;100776.47;5091230;28;20461;-48
2022/10/02 01:48:27;;;;;;;28.17;25.63;;;;;;;9.74;100.00;100777.66;5091777;28;20429;-47
2022/10/02 01:51:09;;;;;;;26.47;24.10;;;;;;;9.76;100.00;100778.31;5091441;28;20466;-47
2022/10/02 01:53:44;;;;;;;24.90;23.50;;;;;;;9.78;100.00;100779.75;5091618;28;20808;-52
2022/10/02 01:56:23;;;;;;;25.23;23.57;;;;;;;9.79;100.00;100780.59;5091151;28;20461;-51
2022/10/02 01:59:03;;;;;;;25.67;24.23;;;;;;;9.83;100.00;100795.16;5091463;28;20429;-46
2022/10/02 02:01:43;;;;;;;25.43;23.63;;;;;;;9.82;100.00;100788.19;5091212;28;20510;-46
2022/10/02 02:04:20;;;;;;;26.37;24.10;;;;;;;9.83;100.00;100784.50;5091590;28;20430;-45
2022/10/02 02:06:55;;;;;;;26.40;24.30;;;;;;;9.81;100.00;100786.53;5091288;28;20429;-52
2022/10/02 02:09:31;;;;;;;26.17;24.57;;;;;;;9.79;100.00;100781.41;5091453;28;20425;-48
2022/10/02 02:12:07;;;;;;;25.30;23.87;;;;;;;9.77;100.00;100787.91;5091259;28;20445;-51
2022/10/02 02:14:41;;;;;;;25.10;23.50;;;;;;;9.73;100.00;100790.16;5090820;28;21003;-47
2022/10/02 02:17:15;;;;;;;26.53;24.43;;;;;;;9.71;100.00;100780.69;5091321;28;20422;-46
2022/10/02 02:19:46;;;;;;;25.83;24.00;;;;;;;9.69;100.00;100791.53;5091358;28;20466;-46
2022/10/02 02:22:19;;;;;;;26.33;24.40;;;;;;;9.67;100.00;100798.91;5091026;28;20441;-51
2022/10/02 02:24:51;;;;;;;25.87;24.17;;;;;;;9.66;100.00;100794.59;5090776;28;20609;-53
2022/10/02 02:27:24;;;;;;;26.13;24.23;;;;;;;9.66;100.00;100794.59;5091519;28;20927;-49
2022/10/02 02:29:56;;;;;;;26.30;24.70;;;;;;;9.66;100.00;100797.25;5093817;28;20934;-51
2022/10/02 02:32:29;;;;;;;26.13;24.33;;;;;;;9.67;100.00;100795.41;5094600;28;20883;-48
2022/10/02 02:35:04;;;;;;;26.13;24.17;;;;;;;9.66;100.00;100799.91;5094519;28;20461;-47
2022/10/02 02:37:35;;;;;;;25.33;23.70;;;;;;;9.65;100.00;100800.09;5094877;28;20436;-48
2022/10/02 02:40:08;;;;;;;26.07;24.30;;;;;;;9.64;100.00;100796.63;5094957;28;21028;-48
2022/10/02 02:42:42;;;;;;;25.53;23.70;;;;;;;9.61;100.00;100794.34;5094501;28;20966;-50
2022/10/02 02:45:14;;;;;;;25.30;23.77;;;;;;;9.58;100.00;100788.56;5094355;28;20460;-48
2022/10/02 02:47:47;;;;;;;25.57;23.70;;;;;;;9.56;100.00;100790.59;5094522;28;20482;-48
2022/10/02 02:50:21;;;;;;;24.33;23.20;;;;;;;9.53;100.00;100782.97;5094774;28;20438;-47
2022/10/02 02:52:58;;;;;;;24.67;23.17;;;;;;;9.51;100.00;100800.97;5094218;28;20526;-49
2022/10/02 02:55:30;;;;;;;25.33;23.30;;;;;;;9.49;100.00;100797.69;5094065;28;20506;-48
2022/10/02 02:58:04;;;;;;;24.77;23.07;;;;;;;9.49;100.00;100811.81;5094475;28;20838;-47
2022/10/02 03:00:32;;;;;;;25.73;23.83;;;;;;;9.49;100.00;100805.66;5094526;28;20499;-48
2022/10/02 03:02:59;;;;;;;26.43;24.33;;;;;;;9.49;100.00;100810.97;5094112;28;20453;-47
2022/10/02 03:05:29;;;;;;;25.30;23.70;;;;;;;9.49;100.00;100817.13;5093854;28;20904;-47
2022/10/02 03:08:01;;;;;;;25.70;24.10;;;;;;;9.49;100.00;100821.63;5094176;28;20495;-44
2022/10/02 03:10:45;;;;;;;25.83;24.23;;;;;;;9.49;100.00;100816.31;5094191;28;20482;-47
2022/10/02 03:13:32;;;;;;;26.70;24.50;;;;;;;9.51;100.00;100822.25;5094279;28;20518;-47
2022/10/02 03:16:18;;;;;;;27.27;25.00;;;;;;;9.55;100.00;100815.56;5093775;28;20518;-52
2022/10/02 03:19:02;;;;;;;25.30;23.60;;;;;;;9.57;100.00;100811.69;5094001;28;20463;-47
2022/10/02 03:21:39;;;;;;;25.00;23.10;;;;;;;9.61;100.00;100818.31;5091204;28;20457;-43
2022/10/02 03:24:15;;;;;;;26.20;24.13;;;;;;;9.66;100.00;100825.72;5094084;28;20421;-46
2022/10/02 03:26:50;;;;;;;24.67;23.03;;;;;;;9.72;100.00;100819.63;5092813;28;20888;-45
2022/10/02 03:29:24;;;;;;;24.27;22.53;;;;;;;9.78;100.00;100825.03;5093650;28;20425;-44
2022/10/02 03:31:53;;;;;;;26.60;24.17;;;;;;;9.85;100.00;100827.75;5093435;28;20465;-45
2022/10/02 03:34:22;;;;;;;25.13;23.37;;;;;;;9.92;100.00;100828.63;5093245;28;20473;-44
2022/10/02 03:36:50;;;;;;;31.30;23.40;;;;;;;9.98;100.00;100825.22;5093497;28;20911;-46
2022/10/02 03:39:17;;;;;;;25.20;23.23;;;;;;;10.04;100.00;100819.13;5093421;28;20478;-45
2022/10/02 03:41:54;;;;;;;25.63;23.13;;;;;;;10.11;100.00;100806.69;5092416;28;20488;-47
2022/10/02 03:44:22;;;;;;;24.57;22.27;;;;;;;10.16;100.00;100800.81;5093221;28;20422;-47
2022/10/02 03:46:50;;;;;;;25.27;23.33;;;;;;;10.22;100.00;100813.38;5093665;28;20434;-47
2022/10/02 03:49:18;;;;;;;25.20;23.40;;;;;;;10.25;100.00;100816.47;5093454;28;20487;-46
2022/10/02 03:51:45;;;;;;;24.87;22.80;;;;;;;10.28;100.00;100813.41;5093058;28;20457;-45
2022/10/02 03:54:16;;;;;;;24.90;23.00;;;;;;;10.30;100.00;100814.06;5093263;28;20469;-45
2022/10/02 03:56:53;;;;;;;25.20;23.00;;;;;;;10.31;100.00;100815.69;5092891;28;20429;-47
2022/10/02 03:59:36;;;;;;;29.17;23.70;;;;;;;10.32;100.00;100833.34;5093199;28;20433;-47
2022/10/02 04:02:09;;;;;;;24.93;23.17;;;;;;;10.35;100.00;100848.97;5092983;28;20445;-46
2022/10/02 04:04:46;;;;;;;25.10;23.00;;;;;;;10.37;100.00;100851.44;5092628;28;20444;-50
2022/10/02 04:07:20;;;;;;;25.87;23.30;;;;;;;10.36;100.00;100841.81;5093074;28;20429;-51
2022/10/02 04:09:54;;;;;;;25.50;23.80;;;;;;;10.33;100.00;100837.69;5093197;28;20487;-49
2022/10/02 04:12:28;;;;;;;26.00;23.40;;;;;;;10.29;100.00;100844.41;5093022;28;20445;-49
2022/10/02 04:15:01;;;;;;;24.20;22.60;;;;;;;10.22;100.00;100843.50;5092427;28;20466;-52
2022/10/02 04:17:42;;;;;;;23.57;22.33;;;;;;;10.17;100.00;100840.59;5092713;28;20438;-47
2022/10/02 04:20:16;;;;;;;24.60;23.10;;;;;;;10.12;100.00;100824.34;5092843;28;20429;-48
2022/10/02 04:22:49;;;;;;;25.03;23.50;;;;;;;10.06;100.00;100829.59;5092422;28;20495;-52
2022/10/02 04:25:19;;;;;;;24.53;23.00;;;;;;;10.00;100.00;100829.34;5092311;28;20465;-45
2022/10/02 04:27:53;;;;;;;24.27;22.90;;;;;;;9.96;100.00;100835.25;5092681;28;20841;-47
2022/10/02 04:30:22;;;;;;;26.00;24.23;;;;;;;9.93;100.00;100838.28;5092722;28;21195;-45
2022/10/02 04:32:50;;;;;;;24.73;23.17;;;;;;;9.88;100.00;100838.88;5092246;28;20457;-46
2022/10/02 04:35:29;;;;;;;25.87;23.70;;;;;;;9.83;100.00;100835.09;5092251;28;20469;-47
2022/10/02 04:38:24;;;;;;;25.73;23.43;;;;;;;9.78;100.00;100835.69;5092677;28;20470;-45
2022/10/02 04:41:06;;;;;;;26.00;24.27;;;;;;;9.73;100.00;100842.59;5092463;28;20433;-48
2022/10/02 04:43:48;;;;;;;25.50;23.60;;;;;;;9.68;100.00;100839.66;5092424;28;20966;-50
2022/10/02 04:46:37;;;;;;;25.67;24.00;;;;;;;9.63;100.00;100847.38;5091974;28;21024;-47
2022/10/02 04:49:26;;;;;;;24.97;23.50;;;;;;;9.59;100.00;100851.47;5092526;28;20430;-44
2022/10/02 04:52:05;;;;;;;25.17;23.83;;;;;;;9.55;100.00;100853.66;5091886;28;20453;-44
2022/10/02 04:54:57;;;;;;;27.17;25.37;;;;;;;9.53;100.00;100854.88;5091823;28;20570;-45
2022/10/02 04:57:53;;;;;;;25.70;24.00;;;;;;;9.51;100.00;100857.69;5092400;28;20478;-44
2022/10/02 05:00:22;;;;;;;25.30;23.63;;;;;;;9.48;100.00;100851.91;5092326;28;20437;-45
2022/10/02 05:03:05;;;;;;;25.37;23.87;;;;;;;9.46;100.00;100854.78;5091925;28;20577;-44
2022/10/02 05:05:52;;;;;;;26.20;24.27;;;;;;;9.44;100.00;100862.94;5091777;28;20465;-46
2022/10/02 05:08:41;;;;;;;25.20;23.80;;;;;;;9.46;100.00;100868.09;5092031;28;20491;-49
2022/10/02 05:11:26;;;;;;;25.20;23.47;;;;;;;9.48;100.00;100866.06;5091860;28;20494;-47
2022/10/02 05:14:24;;;;;;;24.60;23.17;;;;;;;9.53;100.00;100876.97;5091973;28;20429;-47
2022/10/02 05:17:04;;;;;;;25.00;23.40;;;;;;;9.59;100.00;100870.09;5091667;28;20450;-46
2022/10/02 05:19:50;;;;;;;25.50;23.63;;;;;;;9.62;100.00;100875.00;5092019;28;20499;-48
2022/10/02 05:22:42;;;;;;;25.00;23.63;;;;;;;9.62;100.00;100878.50;5091750;28;20440;-46
2022/10/02 05:25:27;;;;;;;26.07;24.33;;;;;;;9.61;100.00;100884.88;5091698;28;20461;-44
2022/10/02 05:28:23;;;;;;;26.40;24.57;;;;;;;9.58;100.00;100889.72;5092015;28;20474;-48
2022/10/02 05:31:02;;;;;;;25.30;23.67;;;;;;;9.53;100.00;100884.16;5091619;28;20487;-47
2022/10/02 05:33:48;;;;;;;26.70;24.60;;;;;;;9.49;100.00;100874.88;5091713;28;20450;-46
2022/10/02 05:36:43;;;;;;;25.00;23.70;;;;;;;9.44;100.00;100889.56;5091322;28;20465;-45
2022/10/02 05:39:18;;;;;;;25.43;24.03;;;;;;;9.43;100.00;100890.59;5085395;28;20486;-50
2022/10/02 05:41:57;;;;;;;26.00;24.73;;;;;;;9.42;100.00;100898.75;5091746;28;20445;-48
2022/10/02 05:44:34;;;;;;;25.80;24.13;;;;;;;9.40;100.00;100893.63;5091319;28;20483;-46
2022/10/02 05:47:11;;;;;;;25.07;23.47;;;;;;;9.38;100.00;100897.44;5091532;28;20473;-50
2022/10/02 05:49:41;;;;;;;24.57;23.07;;;;;;;9.35;100.00;100897.81;5091823;28;20482;-53
2022/10/02 05:52:16;;;;;;;25.50;23.60;;;;;;;9.33;100.00;100906.00;5091454;28;20841;-47
2022/10/02 05:54:51;;;;;;;24.50;23.30;;;;;;;9.33;100.00;100897.19;5091221;28;20617;-51
2022/10/02 05:57:26;;;;;;;25.27;23.83;;;;;;;9.32;100.00;100899.00;5091478;28;20763;-49
2022/10/02 06:00:03;;;;;;;25.10;23.57;;;;;;;9.30;100.00;100901.03;5091833;28;20852;-52
2022/10/02 06:02:40;;;;;;;23.93;22.63;;;;;;;9.56;100.00;100908.53;5090132;28;20502;-48
2022/10/02 06:05:17;;;;;;;23.63;22.37;;;;;;;10.00;100.00;100906.59;5094255;28;21076;-49
2022/10/02 06:07:50;;;;;;;23.93;22.33;;;;;;;10.38;100.00;100915.22;5095265;28;20444;-52
2022/10/02 06:10:23;;;;;;;24.10;22.80;;;;;;;10.74;100.00;100925.78;5095343;28;20490;-47
2022/10/02 06:12:56;;;;;;;24.33;22.77;;;;;;;11.02;100.00;100931.94;5095260;28;20449;-50
2022/10/02 06:15:30;;;;;;;23.83;22.13;;;;;;;11.37;100.00;100935.47;5094396;28;20550;-48
2022/10/02 06:18:03;;;;;;;25.83;24.10;;;;;;;11.66;100.00;100931.69;5095048;28;20426;-50
2022/10/02 06:20:34;;;;;;;25.40;23.80;;;;;;;11.77;100.00;100938.38;5094975;28;20942;-46
2022/10/02 06:23:08;;;;;;;25.90;24.20;;;;;;;11.86;100.00;100929.97;5094890;28;20843;-48
2022/10/02 06:25:40;;;;;;;26.63;25.00;;;;;;;12.02;100.00;100934.13;5094747;28;20457;-46
2022/10/02 06:28:13;;;;;;;26.50;24.90;;;;;;;12.00;100.00;100933.53;5092964;28;20433;-46
2022/10/02 06:30:47;;;;;;;25.67;24.13;;;;;;;12.19;100.00;100940.75;5094064;28;20841;-47
2022/10/02 06:33:19;;;;;;;26.27;24.33;;;;;;;12.17;100.00;100937.47;5094677;28;20457;-46
2022/10/02 06:36:07;;;;;;;25.50;24.07;;;;;;;12.22;100.00;100935.00;5094238;27;20522;-46
2022/10/02 06:38:53;;;;;;;27.90;25.90;;;;;;;12.31;100.00;100932.94;5094766;28;20992;-46
2022/10/02 06:41:30;;;;;;;25.83;24.03;;;;;;;12.46;100.00;100937.09;5094466;28;20434;-48
2022/10/02 06:44:12;;;;;;;26.00;24.20;;;;;;;12.66;100.00;100948.63;5094815;28;20487;-52
2022/10/02 06:46:51;;;;;;;25.97;24.27;;;;;;;12.87;100.00;100944.13;5093952;27;20511;-48
2022/10/02 06:49:27;;;;;;;26.63;24.70;;;;;;;13.06;100.00;100948.63;5093429;28;20794;-49
2022/10/02 06:52:06;;;;;;;25.47;23.97;;;;;;;13.14;100.00;100943.13;5095692;28;21042;-49
2022/10/02 06:54:50;;;;;;;27.20;24.90;;;;;;;13.17;100.00;100948.06;5093820;28;20451;-49
2022/10/02 06:57:35;;;;;;;26.33;24.93;;;;;;;13.19;100.00;100943.31;5094218;28;20486;-51
2022/10/02 07:00:10;;;;;;;28.23;25.90;;;;;;;13.15;100.00;100942.06;5093977;28;20426;-49
2022/10/02 07:03:12;;;;;;;26.33;24.50;;;;;;;13.16;100.00;100946.41;5094225;28;20452;-47
2022/10/02 07:05:59;;;;;;;27.87;25.90;;;;;;;13.35;100.00;100958.13;5093384;28;20457;-46
2022/10/02 07:08:38;;;;;;;28.73;26.77;;;;;;;13.36;100.00;100955.22;5094445;28;20498;-50
2022/10/02 07:11:15;;;;;;;29.90;26.80;;;;;;;13.38;100.00;100990.63;5093930;28;21098;-46
2022/10/02 07:13:54;;;;;;;28.63;26.60;;;;;;;13.24;100.00;100995.19;5093825;28;20429;-46
2022/10/02 07:16:39;;;;;;;27.83;25.67;;;;;;;12.97;100.00;100985.50;5093255;28;20546;-49
2022/10/02 07:19:22;;;;;;;28.90;26.47;;;;;;;12.75;100.00;100968.81;5094110;28;20438;-50
2022/10/02 07:22:03;;;;;;;29.93;27.40;;;;;;;12.55;100.00;100970.66;5093609;28;20438;-46
2022/10/02 07:25:09;;;;;;;28.90;26.53;;;;;;;12.38;100.00;100979.25;5093260;28;21034;-46
2022/10/02 07:27:47;;;;;;;26.97;25.57;;;;;;;12.25;100.00;100977.38;5094039;28;20429;-52
2022/10/02 07:30:17;;;;;;;29.43;27.27;;;;;;;12.24;100.00;100988.28;5093664;28;20482;-46
2022/10/02 07:32:48;;;;;;;29.13;27.43;;;;;;;12.25;100.00;100987.25;5093348;28;20514;-46
2022/10/02 07:35:31;;;;;;;27.43;25.37;;;;;;;12.44;100.00;100995.34;5092992;28;20457;-46
2022/10/02 07:38:16;;;;;;;27.03;25.37;;;;;;;12.66;100.00;100999.47;5093846;28;20787;-46
2022/10/02 07:40:55;;;;;;;29.20;27.07;;;;;;;12.82;100.00;101000.09;5093526;28;20445;-46
2022/10/02 07:43:43;;;;;;;28.90;27.00;;;;;;;13.04;100.00;100997.03;5092933;28;20453;-46
2022/10/02 07:46:18;;;;;;;27.30;25.37;;;;;;;13.18;100.00;101001.38;5093002;28;20457;-48
2022/10/02 07:49:00;;;;;;;28.50;26.50;;;;;;;13.36;100.00;100999.91;5092926;28;20428;-47
2022/10/02 07:51:46;;;;;;;29.20;27.00;;;;;;;13.47;100.00;100993.94;5093194;28;20438;-47
2022/10/02 07:54:33;;;;;;;28.70;27.03;;;;;;;13.67;100.00;100997.41;5092100;28;20440;-46
2022/10/02 07:57:11;;;;;;;29.17;26.73;;;;;;;13.78;100.00;100999.41;5091231;28;20485;-45
2022/10/02 07:59:42;;;;;;;27.53;25.83;;;;;;;13.90;100.00;101003.09;5091756;28;20486;-46
2022/10/02 08:02:28;;;;;;;28.30;26.13;;;;;;;14.03;100.00;101011.09;5091341;28;20454;-46
2022/10/02 08:04:59;;;;;;;29.30;27.80;;;;;;;14.19;100.00;101018.63;5091804;28;20487;-46
2022/10/02 08:07:28;;;;;;;30.83;28.60;;;;;;;14.39;100.00;101021.28;5091783;28;20426;-48
2022/10/02 08:10:01;;;;;;;30.83;28.77;;;;;;;14.57;100.00;101020.56;5091467;28;20433;-45
2022/10/02 08:12:35;;;;;;;29.27;27.63;;;;;;;14.73;100.00;101028.91;5091340;28;21031;-45
2022/10/02 08:15:06;;;;;;;28.60;26.60;;;;;;;14.86;100.00;101023.44;5090854;28;20792;-47
2022/10/02 08:17:40;;;;;;;28.20;26.60;;;;;;;14.95;100.00;101030.19;5091483;28;20470;-49
2022/10/02 08:20:19;;;;;;;29.17;27.47;;;;;;;15.12;100.00;101021.59;5091188;28;20475;-47
2022/10/02 08:22:51;;;;;;;31.63;29.90;;;;;;;15.20;100.00;101029.38;5090995;28;20457;-49
2022/10/02 08:25:24;;;;;;;29.67;27.93;;;;;;;15.33;100.00;101030.09;5090709;28;20885;-46
2022/10/02 08:27:58;;;;;;;30.50;28.70;;;;;;;15.47;100.00;101042.38;5090809;28;20507;-46
2022/10/02 08:30:27;;;;;;;28.00;26.23;;;;;;;15.69;100.00;101034.72;5091295;28;20465;-45
2022/10/02 08:32:54;;;;;;;28.97;26.73;;;;;;;15.75;100.00;101030.31;5090932;28;21040;-47
2022/10/02 08:35:44;;;;;;;28.93;26.90;;;;;;;15.84;100.00;101042.44;5091432;28;20453;-47
2022/10/02 08:38:34;;;;;;;30.40;28.00;;;;;;;15.83;100.00;101038.91;5091570;28;20433;-52
2022/10/02 08:41:36;;;;;;;28.90;27.40;;;;;;;15.92;100.00;101045.63;5091132;28;20494;-51
2022/10/02 08:44:39;;;;;;;29.63;27.70;;;;;;;15.97;100.00;101045.81;5091132;28;20502;-51
2022/10/02 08:47:32;;;;;;;30.27;27.87;;;;;;;16.10;100.00;101042.13;5089853;28;20992;-46
2022/10/02 08:50:31;;;;;;;28.67;26.60;;;;;;;16.18;100.00;101049.91;5090419;28;20433;-51
2022/10/02 08:53:47;;;;;;;30.43;28.60;;;;;;;16.26;100.00;101046.06;5090768;28;20459;-50
2022/10/02 08:56:43;;;;;;;30.03;27.93;;;;;;;16.19;100.00;101043.47;5089941;28;21062;-46
2022/10/02 08:59:52;;;;;;;31.17;29.20;;;;;;;16.29;100.00;101042.94;5090943;28;20487;-51
2022/10/02 09:03:08;;;;;;;30.37;28.30;;;;;;;16.32;100.00;101050.56;5075211;28;20453;-48
2022/10/02 09:06:05;;;;;;;29.07;27.07;;;;;;;15.97;99.46;101056.56;5008045;28;20500;-47
2022/10/02 09:09:01;;;;;;;29.30;27.50;;;;;;;16.23;100.00;101062.66;5008410;28;20483;-48
2022/10/02 09:12:25;;;;;;;29.37;27.40;;;;;;;16.39;100.00;101062.88;5080894;28;20768;-53
2022/10/02 09:14:58;;;;;;;30.27;27.87;;;;;;;16.63;100.00;101065.72;5034826;28;20458;-48
2022/10/02 09:17:48;;;;;;;30.77;28.60;;;;;;;16.58;96.92;101072.59;5089779;28;20585;-48
2022/10/02 09:20:40;;;;;;;29.47;27.43;;;;;;;16.61;95.27;101065.91;5091097;28;20476;-48
2022/10/02 09:23:40;;;;;;;28.90;27.00;;;;;;;16.59;89.98;101068.84;5091552;28;20555;-48
2022/10/02 09:26:18;;;;;;;29.07;26.77;;;;;;;16.61;89.51;101063.22;5091362;28;20519;-53
2022/10/02 09:29:41;;;;;;;29.60;27.50;;;;;;;16.91;89.03;101074.00;5091878;28;20837;-51
2022/10/02 09:32:57;;;;;;;28.57;26.60;;;;;;;16.80;91.56;101070.22;5091288;28;20464;-53
2022/10/02 09:35:52;;;;;;;27.63;25.77;;;;;;;16.50;92.78;101072.88;5091437;28;20461;-51
2022/10/02 09:38:50;;;;;;;25.80;23.90;;;;;;;16.04;94.36;101065.38;5091897;28;20481;-52
2022/10/02 09:41:52;;;;;;;28.07;26.27;;;;;;;15.78;99.38;101087.16;5095582;28;20429;-47
2022/10/02 09:44:55;;;;;;;29.13;26.33;;;;;;;15.29;100.00;101093.34;5095313;28;20463;-50
2022/10/02 09:48:08;;;;;;;25.93;23.80;;;;;;;14.70;100.00;101091.06;5095921;28;20436;-51
2022/10/02 09:51:12;;;;;;;24.63;23.33;;;;;;;14.01;99.27;101098.94;5095621;28;20488;-48
2022/10/02 09:54:16;;;;;;;25.40;23.27;;;;;;;13.66;100.00;101111.81;5094079;28;20928;-47
2022/10/02 09:57:10;;;;;;;24.77;23.57;;;;;;;13.56;100.00;101103.34;5095192;28;20542;-48
2022/10/02 10:00:02;;;;;;;27.30;25.77;;;;;;;13.51;100.00;101102.31;5095658;28;20429;-53
2022/10/02 10:03:03;;;;;;;28.07;26.20;;;;;;;13.64;100.00;101123.78;5095120;28;20453;-46
2022/10/02 10:05:52;;;;;;;26.60;25.30;;;;;;;13.66;100.00;101122.53;5092090;28;20884;-48
2022/10/02 10:09:08;;;;;;;26.97;25.57;;;;;;;13.68;100.00;101117.78;5094658;28;20433;-49
2022/10/02 10:12:12;;;;;;;27.30;25.23;;;;;;;13.75;100.00;101123.13;5093519;28;20457;-46
2022/10/02 10:15:14;;;;;;;27.50;25.60;;;;;;;13.78;100.00;101120.88;5082141;28;20506;-53
2022/10/02 10:18:28;;;;;;;29.13;26.47;;;;;;;13.81;100.00;101119.63;5094988;28;20468;-46
2022/10/02 10:21:32;;;;;;;28.23;26.03;;;;;;;13.75;100.00;101128.50;5070338;28;20845;-48
2022/10/02 10:24:31;;;;;;;27.17;25.43;;;;;;;13.77;100.00;101132.59;5074595;28;20429;-48
2022/10/02 10:27:21;;;;;;;28.00;26.43;;;;;;;14.08;100.00;101139.16;5065171;28;20516;-52
2022/10/02 10:30:17;;;;;;;30.23;28.60;;;;;;;14.19;100.00;101133.16;5074740;28;20853;-47
2022/10/02 10:33:33;;;;;;;30.43;28.23;;;;;;;14.34;100.00;101137.25;5074174;28;20515;-50
2022/10/02 10:39:53;;;;;;;29.93;27.93;;;;;;;14.71;100.00;101137.53;5036509;28;20439;-47
2022/10/02 10:42:53;;;;;;;29.87;28.07;;;;;;;15.01;100.00;101133.25;5073294;28;20453;-46
2022/10/02 10:45:54;;;;;;;28.43;26.40;;;;;;;15.25;100.00;101134.31;5074054;28;20469;-46
2022/10/02 10:48:34;;;;;;;29.20;27.13;;;;;;;15.64;100.00;101143.97;5074394;28;20429;-48
2022/10/02 10:51:19;;;;;;;31.20;29.10;;;;;;;15.86;100.00;101142.56;5073416;28;20484;-49
2022/10/02 10:54:10;;;;;;;29.20;27.50;;;;;;;15.85;100.00;101146.28;5074342;28;20491;-45
2022/10/02 10:56:44;;;;;;;28.00;26.00;;;;;;;15.31;100.00;101176.44;5073800;28;20462;-51
2022/10/02 10:59:47;;;;;;;67.47;63.83;;;;;;;14.40;100.00;101157.88;5074164;28;20426;-49
2022/10/02 11:02:42;;;;;;;31.07;29.97;;;;;;;14.20;100.00;101157.09;5072712;28;20462;-48
2022/10/02 11:05:21;;;;;;;32.20;31.00;;;;;;;14.14;100.00;101159.78;5063739;28;20516;-47
2022/10/02 11:08:06;;;;;;;28.30;27.40;;;;;;;14.10;100.00;101159.38;5073766;28;20414;-49
2022/10/02 11:10:47;;;;;;;30.10;29.00;;;;;;;14.44;100.00;101163.66;5073983;28;20442;-51
2022/10/02 11:13:46;;;;;;;31.10;29.90;;;;;;;14.84;100.00;101167.03;5073441;28;20496;-46
2022/10/02 11:16:42;;;;;;;30.07;28.87;;;;;;;15.17;100.00;101175.69;5073201;28;20488;-50
2022/10/02 11:19:33;;;;;;;26.47;25.47;;;;;;;15.16;100.00;101181.28;5076694;28;20473;-49
2022/10/02 11:22:37;;;;;;;26.37;25.37;;;;;;;14.85;100.00;101184.75;5093016;28;20437;-49
2022/10/02 11:25:21;;;;;;;97.40;93.50;;;;;;;14.48;100.00;101177.47;5088667;28;20483;-45
2022/10/02 11:28:30;;;;;;;56.20;54.00;;;;;;;14.27;100.00;101187.41;5090865;28;20833;-50
2022/10/02 11:31:17;;;;;;;44.20;42.60;;;;;;;14.15;100.00;101182.91;5034757;28;20428;-47
2022/10/02 11:34:06;;;;;;;26.00;25.10;;;;;;;13.97;100.00;101182.72;5092235;28;20943;-52
2022/10/02 11:36:51;;;;;;;26.30;25.40;;;;;;;13.80;100.00;101196.53;5091841;28;20461;-47
2022/10/02 11:39:36;;;;;;;26.70;25.80;;;;;;;13.71;100.00;101199.63;5093453;28;20469;-48
2022/10/02 11:42:32;;;;;;;30.40;29.30;;;;;;;13.32;100.00;101206.59;5092782;28;20502;-50
2022/10/02 11:45:19;;;;;;;31.40;30.20;;;;;;;13.39;100.00;101198.56;5093014;28;20511;-49
2022/10/02 11:48:17;;;;;;;33.40;31.70;;;;;;;13.56;100.00;101207.84;5091138;28;20425;-50
2022/10/02 11:51:25;;;;;;;34.93;32.10;;;;;;;13.77;100.00;101193.44;5092544;28;20443;-47
2022/10/02 11:54:14;;;;;;;34.83;32.13;;;;;;;13.99;100.00;101188.69;5077473;28;20433;-49
2022/10/02 11:57:02;;;;;;;34.90;31.90;;;;;;;14.19;100.00;101192.16;5092123;28;20881;-45
2022/10/02 11:59:56;;;;;;;32.23;30.00;;;;;;;14.16;100.00;101209.50;5093022;28;20469;-51
2022/10/02 12:02:31;;;;;;;30.43;28.30;;;;;;;13.98;100.00;101203.16;5085553;28;20510;-49
2022/10/02 12:05:20;;;;;;;30.47;28.80;;;;;;;13.88;100.00;101203.56;5092342;28;20463;-47
2022/10/02 12:08:00;;;;;;;31.90;29.63;;;;;;;13.68;100.00;101219.63;5093019;28;20430;-48
2022/10/02 12:10:46;;;;;;;30.33;28.33;;;;;;;13.56;100.00;101223.94;5092217;28;21123;-46
2022/10/02 12:13:29;;;;;;;30.93;28.77;;;;;;;13.57;100.00;101222.91;5092615;28;20441;-48
2022/10/02 12:16:06;;;;;;;31.17;28.93;;;;;;;13.62;100.00;101225.00;5092369;28;20483;-47